createdAt,value
2018-04-16T00:00:22.287Z,26.37
2018-04-16T00:02:50.253Z,21.37
2018-04-16T00:05:18.255Z,13.93
2018-04-16T00:07:45.784Z,17.57
2018-04-16T00:10:13.856Z,12.50
2018-04-16T00:12:41.933Z,17.83
2018-04-16T00:15:09.907Z,25.83
2018-04-16T00:17:37.460Z,15.23
2018-04-16T00:20:07.479Z,11.37
2018-04-16T00:22:35.446Z,12.07
2018-04-16T00:25:03.212Z,10.83
2018-04-16T00:27:31.387Z,16.20
2018-04-16T00:30:00.070Z,12.13
2018-04-16T00:32:33.733Z,11.97
2018-04-16T00:35:06.899Z,12.73
2018-04-16T00:37:40.160Z,17.27
2018-04-16T00:40:13.449Z,15.33
2018-04-16T00:42:48.744Z,10.10
2018-04-16T00:45:22.300Z,11.80
2018-04-16T00:47:55.592Z,11.37
2018-04-16T00:50:28.991Z,10.30
2018-04-16T00:53:02.307Z,10.87
2018-04-16T00:55:36.188Z,12.67
2018-04-16T00:58:09.941Z,12.70
2018-04-16T01:00:43.308Z,10.93
2018-04-16T01:03:16.894Z,26.00
2018-04-16T01:05:50.391Z,10.27
2018-04-16T01:08:23.903Z,11.03
2018-04-16T01:10:57.307Z,14.03
2018-04-16T01:13:30.812Z,12.57
2018-04-16T01:16:04.252Z,12.77
2018-04-16T01:18:37.614Z,11.47
2018-04-16T01:21:10.945Z,22.27
2018-04-16T01:23:44.023Z,16.23
2018-04-16T01:26:17.157Z,12.63
2018-04-16T01:28:50.863Z,10.60
2018-04-16T01:31:24.672Z,12.67
2018-04-16T01:33:58.373Z,11.50
2018-04-16T01:36:31.954Z,10.80
2018-04-16T01:39:05.991Z,11.37
2018-04-16T01:41:39.697Z,10.70
2018-04-16T01:44:13.157Z,12.00
2018-04-16T01:46:46.497Z,12.83
2018-04-16T01:49:19.990Z,10.83
2018-04-16T01:51:53.276Z,13.27
2018-04-16T01:54:26.980Z,10.33
2018-04-16T01:57:00.583Z,10.63
2018-04-16T01:59:34.390Z,12.43
2018-04-16T02:02:08.203Z,11.43
2018-04-16T02:04:41.694Z,12.77
2018-04-16T02:07:15.507Z,12.17
2018-04-16T02:09:49.100Z,12.03
2018-04-16T02:12:22.703Z,32.30
2018-04-16T02:14:56.073Z,24.03
2018-04-16T02:17:29.196Z,15.10
2018-04-16T02:20:03.307Z,18.90
2018-04-16T02:22:36.923Z,12.00
2018-04-16T02:25:10.402Z,20.77
2018-04-16T02:27:43.799Z,14.47
2018-04-16T02:30:17.447Z,35.10
2018-04-16T02:32:50.593Z,14.90
2018-04-16T02:35:23.994Z,13.63
2018-04-16T02:37:57.735Z,14.87
2018-04-16T02:40:30.995Z,16.77
2018-04-16T02:46:08.614Z,12.87
2018-04-16T02:48:42.317Z,33.03
2018-04-16T02:51:16.024Z,12.00
2018-04-16T02:53:49.924Z,25.00
2018-04-16T02:56:23.525Z,11.30
2018-04-16T02:58:57.773Z,14.63
2018-04-16T03:01:31.140Z,13.93
2018-04-16T03:04:04.750Z,18.30
2018-04-16T03:06:39.893Z,15.73
2018-04-16T03:09:13.183Z,12.77
2018-04-16T03:11:46.877Z,10.93
2018-04-16T03:14:20.682Z,11.27
2018-04-16T03:16:54.285Z,13.57
2018-04-16T03:19:27.786Z,12.60
2018-04-16T03:22:00.984Z,12.97
2018-04-16T03:24:36.554Z,13.03
2018-04-16T03:27:09.773Z,12.00
2018-04-16T03:29:43.571Z,14.80
2018-04-16T03:32:16.607Z,11.67
2018-04-16T03:34:50.534Z,13.50
2018-04-16T03:37:23.919Z,12.13
2018-04-16T03:39:57.723Z,12.77
2018-04-16T03:42:30.861Z,12.63
2018-04-16T03:45:04.113Z,16.17
2018-04-16T03:47:37.509Z,13.17
2018-04-16T03:50:11.107Z,12.40
2018-04-16T03:52:44.820Z,13.40
2018-04-16T03:58:20.189Z,12.23
2018-04-16T04:00:47.727Z,13.73
2018-04-16T04:03:15.296Z,12.40
2018-04-16T04:05:43.097Z,11.83
2018-04-16T04:08:10.733Z,12.83
2018-04-16T04:10:38.556Z,12.77
2018-04-16T04:13:06.148Z,14.47
2018-04-16T04:15:34.229Z,17.37
2018-04-16T04:18:01.888Z,11.67
2018-04-16T04:20:29.444Z,13.10
2018-04-16T04:23:09.316Z,13.37
2018-04-16T04:25:48.846Z,12.57
2018-04-16T04:28:32.273Z,11.37
2018-04-16T04:31:00.442Z,12.57
2018-04-16T04:33:28.411Z,13.60
2018-04-16T04:35:56.284Z,14.07
2018-04-16T04:38:24.147Z,14.33
2018-04-16T04:40:52.114Z,10.73
2018-04-16T04:43:20.084Z,13.47
2018-04-16T04:45:48.054Z,15.37
2018-04-16T04:48:16.135Z,12.43
2018-04-16T04:50:44.095Z,12.87
2018-04-16T04:53:11.987Z,12.57
2018-04-16T04:55:39.418Z,11.43
2018-04-16T04:58:07.494Z,12.67
2018-04-16T05:00:35.413Z,11.27
2018-04-16T05:03:02.948Z,13.00
2018-04-16T05:05:30.497Z,10.17
2018-04-16T05:07:59.471Z,24.30
2018-04-16T05:10:27.649Z,14.50
2018-04-16T05:12:55.106Z,13.33
2018-04-16T05:15:23.112Z,12.37
2018-04-16T05:17:51.785Z,12.57
2018-04-16T05:20:19.325Z,11.43
2018-04-16T05:22:47.494Z,11.47
2018-04-16T05:25:16.285Z,12.63
2018-04-16T05:27:44.126Z,12.53
2018-04-16T05:30:11.724Z,10.57
2018-04-16T05:32:40.763Z,11.73
2018-04-16T05:35:08.266Z,11.40
2018-04-16T05:37:38.596Z,13.87
2018-04-16T05:40:06.765Z,10.17
2018-04-16T05:42:37.705Z,10.93
2018-04-16T05:45:05.676Z,12.10
2018-04-16T05:47:34.459Z,10.93
2018-04-16T05:50:02.738Z,11.77
2018-04-16T05:52:30.645Z,9.93
2018-04-16T05:54:59.196Z,11.13
2018-04-16T05:57:26.698Z,11.37
2018-04-16T05:59:54.411Z,12.50
2018-04-16T06:02:22.207Z,9.77
2018-04-16T06:04:49.951Z,10.83
2018-04-16T06:07:17.367Z,9.93
2018-04-16T06:09:44.980Z,9.37
2018-04-16T06:12:12.646Z,10.80
2018-04-16T06:14:40.106Z,9.97
2018-04-16T06:17:07.955Z,8.63
2018-04-16T06:19:36.430Z,11.43
2018-04-16T06:22:04.398Z,10.23
2018-04-16T06:24:32.366Z,11.87
2018-04-16T06:27:00.158Z,11.30
2018-04-16T06:29:27.573Z,9.37
2018-04-16T06:31:55.156Z,10.50
2018-04-16T06:34:23.119Z,9.60
2018-04-16T06:36:51.116Z,9.83
2018-04-16T06:39:18.556Z,10.87
2018-04-16T06:41:46.057Z,12.70
2018-04-16T06:44:13.569Z,12.13
2018-04-16T06:46:41.343Z,13.80
2018-04-16T06:49:08.991Z,17.37
2018-04-16T06:51:36.925Z,14.53
2018-04-16T06:54:04.518Z,13.67
2018-04-16T06:56:32.496Z,17.03
2018-04-16T06:59:00.052Z,12.87
2018-04-16T07:01:28.237Z,18.13
2018-04-16T07:03:55.795Z,17.33
2018-04-16T07:06:23.344Z,14.13
2018-04-16T07:08:51.209Z,17.43
2018-04-16T07:11:18.694Z,18.13
2018-04-16T07:13:46.230Z,17.47
2018-04-16T07:16:13.903Z,20.17
2018-04-16T07:18:41.392Z,22.73
2018-04-16T07:21:09.066Z,29.63
2018-04-16T07:23:36.625Z,21.00
2018-04-16T07:26:04.230Z,18.70
2018-04-16T07:28:32.306Z,14.83
2018-04-16T07:31:00.273Z,15.77
2018-04-16T07:33:28.142Z,19.60
2018-04-16T07:35:55.609Z,16.30
2018-04-16T07:38:23.488Z,21.67
2018-04-16T07:40:50.955Z,17.37
2018-04-16T07:43:18.411Z,20.23
2018-04-16T07:45:46.072Z,19.27
2018-04-16T07:48:13.707Z,17.77
2018-04-16T07:50:41.424Z,19.00
2018-04-16T07:53:08.862Z,20.20
2018-04-16T07:55:36.387Z,19.80
2018-04-16T07:58:04.318Z,23.87
2018-04-16T08:00:31.924Z,22.90
2018-04-16T08:03:02.139Z,21.87
2018-04-16T08:05:30.028Z,16.07
2018-04-16T08:07:57.677Z,17.27
2018-04-16T08:10:25.236Z,13.03
2018-04-16T08:12:53.402Z,13.73
2018-04-16T08:15:21.065Z,22.47
2018-04-16T08:17:48.994Z,13.50
2018-04-16T08:20:16.596Z,17.47
2018-04-16T08:22:44.367Z,15.27
2018-04-16T08:25:11.872Z,12.50
2018-04-16T08:27:39.786Z,20.10
2018-04-16T08:30:07.756Z,14.27
2018-04-16T08:32:35.734Z,14.37
2018-04-16T08:35:03.502Z,19.37
2018-04-16T08:37:31.053Z,13.13
2018-04-16T08:39:58.945Z,15.73
2018-04-16T08:42:26.429Z,14.87
2018-04-16T08:44:53.955Z,12.87
2018-04-16T08:47:21.499Z,20.60
2018-04-16T08:49:49.449Z,17.83
2018-04-16T08:52:16.947Z,11.20
2018-04-16T08:54:44.381Z,8.23
2018-04-16T08:57:12.346Z,12.73
2018-04-16T08:59:40.412Z,10.13
2018-04-16T09:02:08.393Z,16.07
2018-04-16T09:04:36.013Z,14.07
2018-04-16T09:07:03.518Z,18.33
2018-04-16T09:09:31.592Z,10.67
2018-04-16T09:11:59.508Z,14.57
2018-04-16T09:14:27.020Z,7.40
2018-04-16T09:16:55.007Z,6.57
2018-04-16T09:19:22.540Z,7.77
2018-04-16T09:21:50.521Z,9.73
2018-04-16T09:24:18.026Z,8.00
2018-04-16T09:26:45.633Z,7.97
2018-04-16T09:29:13.968Z,5.50
2018-04-16T09:31:41.477Z,9.53
2018-04-16T09:34:09.439Z,6.97
2018-04-16T09:36:37.416Z,8.47
2018-04-16T09:39:06.333Z,15.30
2018-04-16T09:41:33.791Z,13.37
2018-04-16T09:44:01.393Z,16.40
2018-04-16T09:46:29.038Z,17.37
2018-04-16T09:48:56.650Z,17.03
2018-04-16T09:51:24.201Z,16.60
2018-04-16T09:53:51.690Z,9.63
2018-04-16T09:56:19.222Z,5.30
2018-04-16T09:58:47.196Z,4.30
2018-04-16T10:01:20.952Z,4.87
2018-04-16T10:03:48.502Z,9.07
2018-04-16T10:06:16.022Z,5.27
2018-04-16T10:08:43.982Z,4.60
2018-04-16T10:11:11.883Z,10.73
2018-04-16T10:13:39.413Z,6.43
2018-04-16T10:16:07.381Z,4.50
2018-04-16T10:18:35.664Z,6.10
2018-04-16T10:21:03.227Z,8.07
2018-04-16T10:23:31.285Z,4.63
2018-04-16T10:25:59.210Z,9.77
2018-04-16T10:28:26.715Z,9.73
2018-04-16T10:30:55.057Z,11.70
2018-04-16T10:33:22.609Z,4.97
2018-04-16T10:35:50.626Z,4.53
2018-04-16T10:38:18.699Z,4.50
2018-04-16T10:40:46.672Z,3.97
2018-04-16T10:43:20.889Z,3.63
2018-04-16T10:45:48.853Z,3.17
2018-04-16T10:48:16.829Z,4.40
2018-04-16T10:50:44.799Z,3.80
2018-04-16T10:53:12.658Z,6.73
2018-04-16T10:55:41.377Z,8.10
2018-04-16T10:58:09.007Z,13.90
2018-04-16T11:00:37.492Z,10.30
2018-04-16T11:03:05.460Z,6.03
2018-04-16T11:05:33.021Z,4.10
2018-04-16T11:08:00.918Z,4.73
2018-04-16T11:10:28.449Z,5.17
2018-04-16T11:12:56.532Z,7.27
2018-04-16T11:15:23.943Z,6.27
2018-04-16T11:17:51.435Z,3.77
2018-04-16T11:20:19.659Z,5.13
2018-04-16T11:22:47.116Z,6.13
2018-04-16T11:25:14.522Z,4.17
2018-04-16T11:27:42.502Z,11.77
2018-04-16T11:30:10.061Z,5.93
2018-04-16T11:32:48.261Z,10.63
2018-04-16T11:35:16.246Z,8.27
2018-04-16T11:37:43.896Z,6.80
2018-04-16T11:40:11.867Z,5.80
2018-04-16T11:42:39.743Z,5.13
2018-04-16T11:45:07.304Z,5.97
2018-04-16T11:47:35.160Z,4.80
2018-04-16T11:50:02.955Z,6.07
2018-04-16T11:52:30.482Z,4.73
2018-04-16T11:54:58.459Z,6.17
2018-04-16T11:57:26.440Z,9.37
2018-04-16T11:59:54.083Z,7.20
2018-04-16T12:02:22.057Z,9.87
2018-04-16T12:04:49.983Z,6.63
2018-04-16T12:07:17.695Z,6.37
2018-04-16T12:09:45.479Z,6.07
2018-04-16T12:12:13.026Z,7.97
2018-04-16T12:14:40.570Z,5.23
2018-04-16T12:17:08.542Z,4.60
2018-04-16T12:19:36.509Z,6.53
2018-04-16T12:22:04.484Z,4.13
2018-04-16T12:24:32.365Z,4.87
2018-04-16T12:27:00.019Z,5.13
2018-04-16T12:29:27.575Z,5.03
2018-04-16T12:31:55.137Z,4.90
2018-04-16T12:34:23.018Z,4.60
2018-04-16T12:36:50.460Z,5.10
2018-04-16T12:39:18.423Z,4.33
2018-04-16T12:41:46.405Z,4.90
2018-04-16T12:44:14.366Z,5.87
2018-04-16T12:46:42.240Z,8.57
2018-04-16T12:49:20.369Z,6.80
2018-04-16T12:51:58.240Z,7.03
2018-04-16T12:54:27.233Z,6.60
2018-04-16T12:56:55.101Z,6.47
2018-04-16T12:59:23.000Z,6.53
2018-04-16T13:01:50.530Z,5.37
2018-04-16T13:04:18.433Z,5.40
2018-04-16T13:06:45.970Z,6.73
2018-04-16T13:09:13.520Z,4.73
2018-04-16T13:11:41.489Z,7.17
2018-04-16T13:14:09.465Z,5.17
2018-04-16T13:16:37.017Z,8.43
2018-04-16T13:19:04.907Z,8.27
2018-04-16T13:21:32.447Z,5.07
2018-04-16T13:24:00.411Z,7.80
2018-04-16T13:26:28.493Z,3.60
2018-04-16T13:28:56.452Z,4.00
2018-04-16T13:31:24.423Z,4.80
2018-04-16T13:33:52.396Z,5.90
2018-04-16T13:36:20.286Z,5.00
2018-04-16T13:38:48.127Z,5.90
2018-04-16T13:41:15.948Z,3.47
2018-04-16T13:43:43.511Z,3.90
2018-04-16T13:46:12.799Z,3.87
2018-04-16T13:48:44.517Z,6.20
2018-04-16T13:51:12.394Z,5.67
2018-04-16T13:53:39.939Z,4.60
2018-04-16T13:56:07.963Z,3.53
2018-04-16T13:58:35.468Z,3.67
2018-04-16T14:01:04.289Z,3.00
2018-04-16T14:03:32.225Z,3.57
2018-04-16T14:06:00.510Z,5.50
2018-04-16T14:08:28.480Z,4.87
2018-04-16T14:10:56.450Z,4.83
2018-04-16T14:13:24.420Z,4.53
2018-04-16T14:16:04.179Z,3.73
2018-04-16T14:18:31.669Z,5.70
2018-04-16T14:20:59.286Z,4.83
2018-04-16T14:23:26.838Z,6.37
2018-04-16T14:25:54.815Z,3.27
2018-04-16T14:28:22.787Z,3.20
2018-04-16T14:30:50.344Z,3.27
2018-04-16T14:33:18.314Z,3.33
2018-04-16T14:35:45.864Z,3.50
2018-04-16T14:38:13.846Z,3.23
2018-04-16T14:40:41.407Z,2.93
2018-04-16T14:43:08.874Z,3.30
2018-04-16T14:45:36.641Z,4.07
2018-04-16T14:48:04.242Z,3.40
2018-04-16T14:50:31.738Z,6.83
2018-04-16T14:52:59.727Z,4.97
2018-04-16T14:55:27.367Z,3.53
2018-04-16T14:57:55.237Z,9.47
2018-04-16T15:00:37.808Z,4.63
2018-04-16T15:03:05.108Z,5.53
2018-04-16T15:05:32.417Z,6.70
2018-04-16T15:08:12.219Z,6.67
2018-04-16T15:10:39.515Z,3.20
2018-04-16T15:13:07.389Z,7.73
2018-04-16T15:15:34.694Z,6.97
2018-04-16T15:18:02.006Z,6.63
2018-04-16T15:20:29.320Z,9.37
2018-04-16T15:22:56.636Z,8.40
2018-04-16T15:25:24.103Z,10.83
2018-04-16T15:27:51.400Z,9.20
2018-04-16T15:30:18.701Z,6.40
2018-04-16T15:32:46.073Z,8.57
2018-04-16T15:35:13.800Z,9.90
2018-04-16T15:37:41.576Z,9.73
2018-04-16T15:40:09.267Z,12.37
2018-04-16T15:42:36.588Z,7.07
2018-04-16T15:45:09.044Z,5.17
2018-04-16T15:47:36.824Z,6.33
2018-04-16T15:50:04.182Z,11.80
2018-04-16T15:52:31.482Z,9.20
2018-04-16T15:54:58.858Z,12.43
2018-04-16T15:57:26.293Z,11.03
2018-04-16T15:59:53.616Z,12.40
2018-04-16T16:02:21.352Z,15.33
2018-04-16T16:04:48.848Z,12.90
2018-04-16T16:07:19.625Z,9.00
2018-04-16T16:09:46.965Z,12.13
2018-04-16T16:12:22.061Z,13.47
2018-04-16T16:14:49.825Z,12.47
2018-04-16T16:17:29.733Z,10.93
2018-04-16T16:19:57.048Z,12.13
2018-04-16T16:22:24.415Z,12.57
2018-04-16T16:24:51.863Z,12.77
2018-04-16T16:27:19.165Z,9.60
2018-04-16T16:29:46.485Z,9.17
2018-04-16T16:32:13.791Z,5.57
2018-04-16T16:34:41.500Z,11.80
2018-04-16T16:37:08.832Z,11.60
2018-04-16T16:39:36.188Z,10.17
2018-04-16T16:42:03.561Z,9.60
2018-04-16T16:44:39.268Z,12.33
2018-04-16T16:47:07.027Z,10.67
2018-04-16T16:49:39.217Z,12.77
2018-04-16T16:52:12.347Z,9.97
2018-04-16T16:54:42.887Z,7.00
2018-04-16T16:57:10.584Z,12.40
2018-04-16T16:59:38.841Z,12.37
2018-04-16T17:02:06.139Z,7.93
2018-04-16T17:04:33.465Z,11.57
2018-04-16T17:07:02.008Z,14.90
2018-04-16T17:09:29.409Z,11.13
2018-04-16T17:12:01.152Z,12.10
2018-04-16T17:14:28.482Z,9.63
2018-04-16T17:17:00.832Z,8.77
2018-04-16T17:19:28.888Z,9.97
2018-04-16T17:21:56.209Z,7.97
2018-04-16T17:24:23.946Z,7.17
2018-04-16T17:26:56.072Z,8.10
2018-04-16T17:29:23.428Z,14.40
2018-04-16T17:31:50.732Z,11.93
2018-04-16T17:34:18.189Z,10.30
2018-04-16T17:36:45.548Z,9.83
2018-04-16T17:39:12.944Z,13.63
2018-04-16T17:41:40.282Z,11.13
2018-04-16T17:44:07.605Z,14.57
2018-04-16T17:46:38.051Z,6.50
2018-04-16T17:49:05.904Z,7.23
2018-04-16T17:51:33.240Z,10.63
2018-04-16T17:54:00.649Z,10.57
2018-04-16T17:56:28.042Z,8.93
2018-04-16T17:58:55.521Z,11.87
2018-04-16T18:01:22.866Z,8.60
2018-04-16T18:03:50.381Z,11.63
2018-04-16T18:06:17.724Z,11.10
2018-04-16T18:08:45.044Z,5.03
2018-04-16T18:11:12.421Z,7.93
2018-04-16T18:13:42.157Z,8.93
2018-04-16T18:16:09.555Z,13.10
2018-04-16T18:18:36.828Z,7.30
2018-04-16T18:21:04.182Z,11.27
2018-04-16T18:23:35.127Z,4.90
2018-04-16T18:26:02.922Z,12.40
2018-04-16T18:28:30.232Z,4.93
2018-04-16T18:30:57.550Z,11.97
2018-04-16T18:33:28.955Z,11.23
2018-04-16T18:35:56.661Z,7.90
2018-04-16T18:38:24.014Z,11.10
2018-04-16T18:40:55.195Z,7.57
2018-04-16T18:43:24.569Z,9.10
2018-04-16T18:45:51.883Z,8.53
2018-04-16T18:48:19.218Z,7.80
2018-04-16T18:50:46.940Z,11.47
2018-04-16T18:53:14.321Z,6.63
2018-04-16T18:55:41.705Z,5.37
2018-04-16T18:58:11.050Z,6.90
2018-04-16T19:00:38.436Z,6.87
2018-04-16T19:03:09.323Z,4.00
2018-04-16T19:05:41.208Z,4.50
2018-04-16T19:08:08.641Z,7.83
2018-04-16T19:10:44.476Z,7.20
2018-04-16T19:13:11.899Z,7.53
2018-04-16T19:15:39.421Z,5.50
2018-04-16T19:18:06.684Z,7.77
2018-04-16T19:20:39.699Z,6.87
2018-04-16T19:23:18.425Z,8.90
2018-04-16T19:25:45.925Z,3.47
2018-04-16T19:28:16.739Z,7.30
2018-04-16T19:30:44.353Z,9.30
2018-04-16T19:33:29.261Z,6.37
2018-04-16T19:35:59.104Z,5.43
2018-04-16T19:38:30.305Z,7.80
2018-04-16T19:41:00.051Z,5.90
2018-04-16T19:43:27.363Z,7.23
2018-04-16T19:45:54.744Z,6.50
2018-04-16T19:48:22.070Z,8.70
2018-04-16T19:50:49.516Z,6.63
2018-04-16T19:53:16.902Z,8.30
2018-04-16T19:55:50.208Z,2.60
2018-04-16T19:58:22.532Z,4.47
2018-04-16T20:00:49.900Z,5.77
2018-04-16T20:03:29.232Z,5.53
2018-04-16T20:05:56.561Z,6.80
2018-04-16T20:08:28.540Z,7.77
2018-04-16T20:10:55.835Z,9.67
2018-04-16T20:13:23.259Z,7.63
2018-04-16T20:15:50.802Z,11.90
2018-04-16T20:18:19.133Z,5.63
2018-04-16T20:20:46.497Z,5.60
2018-04-16T20:23:13.848Z,11.77
2018-04-16T20:25:41.164Z,7.07
2018-04-16T20:28:08.732Z,7.57
2018-04-16T20:30:36.534Z,5.23
2018-04-16T20:33:20.983Z,4.43
2018-04-16T20:35:48.529Z,7.90
2018-04-16T20:38:15.884Z,5.00
2018-04-16T20:40:43.276Z,9.03
2018-04-16T20:43:10.595Z,5.47
2018-04-16T20:45:37.919Z,4.30
2018-04-16T20:48:05.342Z,5.90
2018-04-16T20:50:32.673Z,3.77
2018-04-16T20:52:59.986Z,5.27
2018-04-16T20:55:31.717Z,2.60
2018-04-16T20:57:59.011Z,4.97
2018-04-16T21:00:26.766Z,3.77
2018-04-16T21:02:57.767Z,4.87
2018-04-16T21:05:27.031Z,2.40
2018-04-16T21:07:54.338Z,4.63
2018-04-16T21:10:21.697Z,9.40
2018-04-16T21:12:49.025Z,3.70
2018-04-16T21:15:16.336Z,3.93
2018-04-16T21:17:43.756Z,4.13
2018-04-16T21:20:11.063Z,1.93
2018-04-16T21:22:38.435Z,7.57
2018-04-16T21:25:22.321Z,2.63
2018-04-16T21:27:50.430Z,3.27
2018-04-16T21:30:17.816Z,3.50
2018-04-16T21:32:45.116Z,5.60
2018-04-16T21:35:12.931Z,6.90
2018-04-16T21:37:40.273Z,5.77
2018-04-16T21:40:07.664Z,9.03
2018-04-16T21:42:48.142Z,3.03
2018-04-16T21:45:15.921Z,4.73
2018-04-16T21:47:43.260Z,5.63
2018-04-16T21:50:11.144Z,5.27
2018-04-16T21:52:38.452Z,3.20
2018-04-16T21:55:09.576Z,5.30
2018-04-16T21:57:36.937Z,3.80
2018-04-16T22:00:04.707Z,5.40
2018-04-16T22:02:32.025Z,3.83
2018-04-16T22:04:59.371Z,4.83
2018-04-16T22:07:26.696Z,3.57
2018-04-16T22:09:53.997Z,5.50
2018-04-16T22:12:21.295Z,3.97
2018-04-16T22:14:49.084Z,6.43
2018-04-16T22:17:16.771Z,4.20
2018-04-16T22:19:44.077Z,4.10
2018-04-16T22:22:15.084Z,3.80
2018-04-16T22:24:42.388Z,3.57
2018-04-16T22:27:10.285Z,4.83
2018-04-16T22:29:37.741Z,3.77
2018-04-16T22:32:05.077Z,6.57
2018-04-16T22:34:32.435Z,5.90
2018-04-16T22:36:59.842Z,2.87
2018-04-16T22:39:27.197Z,3.97
2018-04-16T22:41:54.679Z,2.57
2018-04-16T22:44:22.414Z,3.90
2018-04-16T22:46:49.861Z,6.70
2018-04-16T22:49:17.435Z,2.73
2018-04-16T22:51:44.746Z,4.37
2018-04-16T22:54:12.073Z,3.97
2018-04-16T22:56:39.839Z,5.97
2018-04-16T22:59:07.620Z,2.20
2018-04-16T23:01:34.941Z,5.47
2018-04-16T23:04:02.432Z,5.40
2018-04-16T23:06:29.836Z,2.90
2018-04-16T23:08:57.147Z,8.00
2018-04-16T23:11:24.644Z,5.27
2018-04-16T23:13:52.078Z,4.17
2018-04-16T23:16:19.389Z,8.00
2018-04-16T23:18:47.095Z,2.70
2018-04-16T23:21:14.415Z,4.10
2018-04-16T23:23:42.105Z,4.23
2018-04-16T23:26:09.661Z,4.57
2018-04-16T23:28:37.023Z,2.80
2018-04-16T23:31:05.372Z,8.50
2018-04-16T23:33:33.115Z,1.90
2018-04-16T23:36:00.483Z,4.13
2018-04-16T23:38:28.253Z,2.00
2018-04-16T23:40:55.632Z,2.70
2018-04-16T23:43:23.004Z,3.93
2018-04-16T23:45:50.295Z,3.13
2018-04-16T23:48:21.072Z,2.47
2018-04-16T23:50:48.492Z,2.30
2018-04-16T23:53:16.193Z,4.40
2018-04-16T23:55:43.523Z,5.27
2018-04-16T23:58:15.465Z,6.00
